Asotin, Washington
Current Conditions -  °F | °C
As of 6:56 AM on Friday 28 Nov 2014 (Local Time) from KLWS Reporting Station
Overcast Overcast  
Wind Chill: 13°   Ceiling: 7500
Heat Index: 13°   Visibility: 10mi
Dew Point:   Wind: 17mph
Humidity: 62%   Direction: 190°S
Pressure: 29.64"   Gusts: NA
Location:  46.34°N, 117.05°W
Report Text: KLWS 281456Z 19015KT 10SM SCT055 BKN075 OVC090 13/06 A2964 RMK AO2 SLP036 60000 T01330061 58017
Loading
Personal Weather Stations






























Interactive Weather Map New forecast layout! Learn more

10-Day Weather Forecast

Advertisements
Track Severe Weather on mobile